Evans, Iowa
Current Conditions -  °F | °C
As of 3:15 AM on Friday 19 Dec 2014 (Local Time) from KOOA Reporting Station
Overcast Overcast  
Wind Chill: 26°   Ceiling: 6000
Heat Index: 26°   Visibility: 7mi
Dew Point: 24°   Wind: 3mph
Humidity: 90%   Direction: 30°NNE
Pressure: 30.28"   Gusts: NA
Location:  41.3158°N, 92.6258°W
Report Text: KOOA 190915Z AUTO 03003KT 7SM SCT024 OVC060 M03/M04 A3028 RMK AO2 T10311045
Loading
Personal Weather Stations






























Interactive Weather Map New forecast layout! Learn more

10-Day Weather Forecast

Advertisements
Track Severe Weather on mobile